Seili, Suomi

19. tammikuuta 2018 klo 15:23 (EET) (GMT +0200)
Nauvo | | Change Station

Kork 10 ft 60.24 °N, 21.96 °E | Updated 1 minute ago

Puolipilvistä
Puolipilvistä
26.7 °F
Tuntuu kuin 27 °F
N
0.0
Tuuli Suunnaltaan vaihteleva Tuuli ilmansuunnasta Idän ja koillisen välinen
Gusts 0.0 mph

Tänään
Korkea -- | Matala -- °F
--% Sateen mahd.
Eilen
Korkea -- | Matala -- °F
Precip. -- tuumaa
Ilmanpaine 29.68 tuumaa
Näkyvyys 6.2 mailia
Pilviä Vähäistä pilvisyyttä 2200 ft
Täysin pilvistä 4000 ft
Tuulen hyytävyys 27 °F
Kastepiste 25 °F
Ilmankosteus 94%
Sademäärä 0.00 tuumaa
Lumensyvyys Ei saatavilla
9:15 AM 4:11 PM
Kasvava sirppi, 5% visible
METAR EFTU 191320Z AUTO 07003KT 9999 -SN SCT022/// OVC040/// M04/M06 Q1005
Ilmanpaine 29.68 tuumaa
Näkyvyys 6.2 mailia
Pilviä Vähäistä pilvisyyttä 2200 ft
Täysin pilvistä 4000 ft
Tuulen hyytävyys 27 °F
Kastepiste 25 °F
Ilmankosteus 94%
Sademäärä 0.00 tuumaa
Lumensyvyys Ei saatavilla
9:15 AM 4:11 PM
Kasvava sirppi, 5% visible
METAR EFTU 191320Z AUTO 07003KT 9999 -SN SCT022/// OVC040/// M04/M06 Q1005

Get Severe Weather Alerts

Thanks for signing up!

Be on the lookout for a verification email in your inbox.

You'll start receiving the daily forecast at 6 AM.

×

10-Day Weather Forecast

×

Almanac

Tähtitiede

Jan. 19, 2018 Nousuaika Laskuaika
Valoisa aika
Porvarillinen hämärä
Nauttinen hämärä
Astronominen hämärä
Kuu
Näkyvän valon pituus
Päivän pituus
Tomorrow will be .
, % of the Moon is Illuminated

Tämän päivän ennätykset

Country Highs Country Lows

Community

WunderPhotos

Category 6

Welcome to Category 6. This is the collective home for Weather Underground's featured writeups by Dr. Jeff Masters (right), Bob Henson (left), Chris Burt, and other regular contributors.

Nearby

Ilmanlaatu

  Ilmanlaatu AQ Index Pollutant
Not available.

Lumensyvyys

Station Depth Korkeus

Maanjäristysaktiivisuus

Paikkakunta Distance Mag. Time & Date
Minimum magnitude displayed is 2.5.

Coastal Water Temperatures

Paikka Lämpötila

Stations

Lähimmät sääasemat

Aseman sijainti Lämpötila Tuulen hyytävyys Kastepiste Ilmankosteus Tuuli Precip. Kork Päivitetty Tyyppi